Sterling, MI (48659)

1:47 PM EDT on August 29, 2015 (GMT -0400)
MesoWest | | Change Station
CLOSE
Current Station
Personal Weather Station
Location: West Branch, MI
Elevation: 977 ft
Nearby Weather Stations

Elev 977 ft 44.25 °N, 84.23 °W | Updated 37 minutes ago

Overcast
Overcast
64 °F
Feels Like 64 °F
N
4
Wind Variable Wind from SSW
Gusts 6.0 mph

Today
High -- | Low -- °F
--% Chance of Precip.
Yesterday
High -- | Low -- °F
Precip. -- in
6:55 AM 8:17 PM
Full, 100% visible
Pressure 30.11 in
Visibility 10.0 miles
Clouds Mostly Cloudy 900 ft
Mostly Cloudy 7000 ft
Overcast 8000 ft
Dew Point 63 °F
Humidity 95%
Rainfall in
Snow Depth Not available.
UV 3 out of 12
Pollen 9.00 out of 12
Air Quality Not available.
Flu Activity Not available.
METAR KIKW 291732Z AUTO 15004KT 10SM BKN009 BKN070 OVC080 20/17 A3011 RMK AO2 T01990171
Pressure 30.11 in
Visibility 10.0 miles
Clouds Mostly Cloudy 900 ft
Mostly Cloudy 7000 ft
Overcast 8000 ft
Dew Point 63 °F
Humidity 95%
Rainfall in
Snow Depth Not available.
UV 3 out of 12
Pollen 9.00 out of 12
Air Quality Not available.
Flu Activity Not available.
METAR KIKW 291732Z AUTO 15004KT 10SM BKN009 BKN070 OVC080 20/17 A3011 RMK AO2 T01990171
Nowcast | as of 1:00 PM EDT on August 29, 2015

At 2 PM...mostly cloudy. Scattered showers. Temperature 67. South winds 7 mph. At 4 PM...mostly cloudy. Scattered showers. Temperature 69. South winds 6 mph. At 6 PM...mostly cloudy. Scattered showers. Temperature 68. South winds 6 mph. At 8 PM...mostly cloudy. Scattered showers. Temperature 66. South winds 5 mph.

×

10-Day Weather Forecast

×

Almanac

Astronomy

Aug. 29, 2015 Rise Set
Actual Time
Civil Twilight
Nautical Twilight
Astronomical Twilight
Moon
Length of Visible Light
Length of Day
Tomorrow will be .
, % of the Moon is Illuminated

Today's Extremes

State Highs State Lows

Community

WunderPhotos

Upload Photos

1,850,743 photos uploaded!

WunderBlogs® & News

Nearby

Air Quality

  Air Quality AQ Index Pollutant
Not available.

Snow Depth

Station Depth Elevation

Earthquake Activity

City Distance Mag. Time & Date
Minimum magnitude displayed is 2.5.

Coastal Water Temperatures

Place Temperature

Stations

Nearby Weather Stations

Station Location Temp. Windchill Dew Point Humidity Wind Precip. Elev Updated Type